sensor_id;sensor_type;location;lat;lon;timestamp;pressure;altitude;pressure_sealevel;temperature;humidity
74329;BME280;62749;51.982;5.916;2023-08-20T00:00:53;101852.75;;;20.14;87.30
74329;BME280;62749;51.982;5.916;2023-08-20T00:03:24;101859.94;;;20.14;87.52
74329;BME280;62749;51.982;5.916;2023-08-20T00:05:56;101865.00;;;20.18;87.55
74329;BME280;62749;51.982;5.916;2023-08-20T00:08:26;101864.03;;;20.19;87.38
74329;BME280;62749;51.982;5.916;2023-08-20T00:10:55;101869.41;;;20.19;87.24
74329;BME280;62749;51.982;5.916;2023-08-20T00:13:24;101870.06;;;20.23;87.95
74329;BME280;62749;51.982;5.916;2023-08-20T00:15:55;101870.81;;;20.25;87.87
74329;BME280;62749;51.982;5.916;2023-08-20T00:18:25;101864.28;;;20.29;87.02
74329;BME280;62749;51.982;5.916;2023-08-20T00:20:58;101860.63;;;20.30;87.65
74329;BME280;62749;51.982;5.916;2023-08-20T00:23:28;101853.34;;;20.32;87.82
74329;BME280;62749;51.982;5.916;2023-08-20T00:25:58;101852.69;;;20.29;87.18
74329;BME280;62749;51.982;5.916;2023-08-20T00:28:28;101862.00;;;20.23;87.33
74329;BME280;62749;51.982;5.916;2023-08-20T00:31:00;101862.50;;;20.15;87.70
74329;BME280;62749;51.982;5.916;2023-08-20T00:33:31;101867.31;;;20.10;86.93
74329;BME280;62749;51.982;5.916;2023-08-20T00:36:03;101860.63;;;20.03;87.77
74329;BME280;62749;51.982;5.916;2023-08-20T00:38:32;101856.53;;;19.97;87.38
74329;BME280;62749;51.982;5.916;2023-08-20T00:41:01;101864.31;;;19.87;88.25
74329;BME280;62749;51.982;5.916;2023-08-20T00:43:31;101869.19;;;19.81;88.44
74329;BME280;62749;51.982;5.916;2023-08-20T00:46:00;101862.38;;;19.75;88.38
74329;BME280;62749;51.982;5.916;2023-08-20T00:48:30;101855.50;;;19.71;88.89
74329;BME280;62749;51.982;5.916;2023-08-20T00:50:59;101867.16;;;19.70;88.50
74329;BME280;62749;51.982;5.916;2023-08-20T00:53:31;101863.94;;;19.65;88.67
74329;BME280;62749;51.982;5.916;2023-08-20T00:56:01;101873.78;;;19.64;88.86
74329;BME280;62749;51.982;5.916;2023-08-20T00:58:30;101871.31;;;19.61;88.34
74329;BME280;62749;51.982;5.916;2023-08-20T01:01:00;101874.09;;;19.45;89.17
74329;BME280;62749;51.982;5.916;2023-08-20T01:03:29;101875.03;;;19.44;89.85
74329;BME280;62749;51.982;5.916;2023-08-20T01:06:09;101873.91;;;19.48;89.97
74329;BME280;62749;51.982;5.916;2023-08-20T01:08:50;101875.03;;;19.44;89.66
74329;BME280;62749;51.982;5.916;2023-08-20T01:11:29;101883.66;;;19.49;90.28
74329;BME280;62749;51.982;5.916;2023-08-20T01:13:58;101878.13;;;19.52;89.92
74329;BME280;62749;51.982;5.916;2023-08-20T01:16:28;101886.94;;;19.54;89.19
74329;BME280;62749;51.982;5.916;2023-08-20T01:18:57;101893.03;;;19.56;88.96
74329;BME280;62749;51.982;5.916;2023-08-20T01:21:37;101893.25;;;19.53;89.62
74329;BME280;62749;51.982;5.916;2023-08-20T01:24:24;101893.59;;;19.61;89.64
74329;BME280;62749;51.982;5.916;2023-08-20T01:27:11;101901.53;;;19.63;89.57
74329;BME280;62749;51.982;5.916;2023-08-20T01:29:49;101899.34;;;19.70;89.81
74329;BME280;62749;51.982;5.916;2023-08-20T01:32:20;101905.66;;;19.69;88.89
74329;BME280;62749;51.982;5.916;2023-08-20T01:34:52;101911.78;;;19.71;89.15
74329;BME280;62749;51.982;5.916;2023-08-20T01:37:23;101916.09;;;19.73;89.50
74329;BME280;62749;51.982;5.916;2023-08-20T01:39:52;101914.28;;;19.74;89.27
74329;BME280;62749;51.982;5.916;2023-08-20T01:42:21;101921.19;;;19.78;89.64
74329;BME280;62749;51.982;5.916;2023-08-20T01:44:53;101926.13;;;19.84;88.71
74329;BME280;62749;51.982;5.916;2023-08-20T01:47:23;101920.00;;;19.82;88.96
74329;BME280;62749;51.982;5.916;2023-08-20T01:49:52;101916.84;;;19.75;89.54
74329;BME280;62749;51.982;5.916;2023-08-20T01:52:21;101918.78;;;19.73;89.35
74329;BME280;62749;51.982;5.916;2023-08-20T01:54:51;101927.56;;;19.75;89.35
74329;BME280;62749;51.982;5.916;2023-08-20T01:57:20;101932.19;;;19.73;89.50
74329;BME280;62749;51.982;5.916;2023-08-20T01:59:49;101931.31;;;19.73;90.31
74329;BME280;62749;51.982;5.916;2023-08-20T02:02:21;101926.34;;;19.67;90.42
74329;BME280;62749;51.982;5.916;2023-08-20T02:04:51;101932.00;;;19.62;90.16
74329;BME280;62749;51.982;5.916;2023-08-20T02:07:20;101923.09;;;19.61;90.59
74329;BME280;62749;51.982;5.916;2023-08-20T02:09:49;101924.81;;;19.62;90.20
74329;BME280;62749;51.982;5.916;2023-08-20T02:12:19;101936.78;;;19.57;89.93
74329;BME280;62749;51.982;5.916;2023-08-20T02:14:48;101936.41;;;19.49;90.73
74329;BME280;62749;51.982;5.916;2023-08-20T02:17:21;101933.81;;;19.47;90.18
74329;BME280;62749;51.982;5.916;2023-08-20T02:19:50;101936.47;;;19.47;90.95
74329;BME280;62749;51.982;5.916;2023-08-20T02:22:19;101944.69;;;19.44;90.69
74329;BME280;62749;51.982;5.916;2023-08-20T02:24:48;101933.03;;;19.45;90.95
74329;BME280;62749;51.982;5.916;2023-08-20T02:27:18;101941.06;;;19.45;91.19
74329;BME280;62749;51.982;5.916;2023-08-20T02:29:47;101939.28;;;19.45;90.86
74329;BME280;62749;51.982;5.916;2023-08-20T02:32:18;101942.63;;;19.49;90.59
74329;BME280;62749;51.982;5.916;2023-08-20T02:34:51;101937.72;;;19.41;90.92
74329;BME280;62749;51.982;5.916;2023-08-20T02:37:21;101943.19;;;19.40;90.63
74329;BME280;62749;51.982;5.916;2023-08-20T02:39:50;101943.47;;;19.35;91.51
74329;BME280;62749;51.982;5.916;2023-08-20T02:42:19;101929.50;;;19.30;91.78
74329;BME280;62749;51.982;5.916;2023-08-20T02:44:49;101946.91;;;19.37;91.79
74329;BME280;62749;51.982;5.916;2023-08-20T02:47:18;101943.72;;;19.30;91.45
74329;BME280;62749;51.982;5.916;2023-08-20T02:49:47;101949.09;;;19.30;92.00
74329;BME280;62749;51.982;5.916;2023-08-20T02:52:19;101947.00;;;19.36;91.79
74329;BME280;62749;51.982;5.916;2023-08-20T02:54:49;101951.50;;;19.35;91.81
74329;BME280;62749;51.982;5.916;2023-08-20T02:57:18;101949.84;;;19.32;92.57
74329;BME280;62749;51.982;5.916;2023-08-20T02:59:47;101940.38;;;19.27;92.87
74329;BME280;62749;51.982;5.916;2023-08-20T03:02:17;101937.63;;;19.28;92.93
74329;BME280;62749;51.982;5.916;2023-08-20T03:04:46;101931.50;;;19.26;92.64
74329;BME280;62749;51.982;5.916;2023-08-20T03:07:16;101929.66;;;19.27;93.03
74329;BME280;62749;51.982;5.916;2023-08-20T03:09:48;101928.03;;;19.24;92.83
74329;BME280;62749;51.982;5.916;2023-08-20T03:12:17;101935.50;;;19.19;92.23
74329;BME280;62749;51.982;5.916;2023-08-20T03:14:46;101928.34;;;19.20;92.63
74329;BME280;62749;51.982;5.916;2023-08-20T03:17:15;101923.44;;;19.12;92.96
74329;BME280;62749;51.982;5.916;2023-08-20T03:19:54;101921.59;;;19.12;93.51
74329;BME280;62749;51.982;5.916;2023-08-20T03:22:25;101912.72;;;19.12;93.52
74329;BME280;62749;51.982;5.916;2023-08-20T03:24:57;101912.72;;;19.12;94.08
74329;BME280;62749;51.982;5.916;2023-08-20T03:27:26;101911.09;;;19.09;94.26
74329;BME280;62749;51.982;5.916;2023-08-20T03:29:56;101911.94;;;19.10;93.66
74329;BME280;62749;51.982;5.916;2023-08-20T03:32:25;101912.91;;;19.09;93.37
74329;BME280;62749;51.982;5.916;2023-08-20T03:34:55;101915.59;;;19.09;93.15
74329;BME280;62749;51.982;5.916;2023-08-20T03:37:25;101903.25;;;19.06;93.93
74329;BME280;62749;51.982;5.916;2023-08-20T03:39:57;101899.13;;;19.00;93.63
74329;BME280;62749;51.982;5.916;2023-08-20T03:42:27;101902.75;;;18.99;93.41
74329;BME280;62749;51.982;5.916;2023-08-20T03:44:56;101903.72;;;18.98;93.89
74329;BME280;62749;51.982;5.916;2023-08-20T03:47:26;101902.16;;;18.94;93.45
74329;BME280;62749;51.982;5.916;2023-08-20T03:49:55;101923.66;;;18.93;93.73
74329;BME280;62749;51.982;5.916;2023-08-20T03:52:24;101927.16;;;18.93;93.71
74329;BME280;62749;51.982;5.916;2023-08-20T03:54:56;101922.03;;;18.90;93.93
74329;BME280;62749;51.982;5.916;2023-08-20T03:57:26;101928.31;;;18.89;94.25
74329;BME280;62749;51.982;5.916;2023-08-20T03:59:55;101922.97;;;18.89;94.30
74329;BME280;62749;51.982;5.916;2023-08-20T04:02:24;101937.31;;;18.88;94.63
74329;BME280;62749;51.982;5.916;2023-08-20T04:04:57;101936.34;;;18.89;94.74
74329;BME280;62749;51.982;5.916;2023-08-20T04:07:26;101937.09;;;18.91;94.54
74329;BME280;62749;51.982;5.916;2023-08-20T04:09:58;101944.19;;;18.92;94.86
74329;BME280;62749;51.982;5.916;2023-08-20T04:12:27;101944.47;;;18.88;94.19
74329;BME280;62749;51.982;5.916;2023-08-20T04:14:57;101956.41;;;18.82;93.70
74329;BME280;62749;51.982;5.916;2023-08-20T04:17:26;101955.56;;;18.81;93.35
74329;BME280;62749;51.982;5.916;2023-08-20T04:19:55;101952.00;;;18.81;93.70
74329;BME280;62749;51.982;5.916;2023-08-20T04:22:25;101953.16;;;18.77;93.54
74329;BME280;62749;51.982;5.916;2023-08-20T04:24:59;101946.25;;;18.73;94.51
74329;BME280;62749;51.982;5.916;2023-08-20T04:27:28;101955.13;;;18.73;95.09
74329;BME280;62749;51.982;5.916;2023-08-20T04:29:58;101951.59;;;18.73;94.80
74329;BME280;62749;51.982;5.916;2023-08-20T04:32:27;101946.13;;;18.74;93.76
74329;BME280;62749;51.982;5.916;2023-08-20T04:34:56;101954.59;;;18.66;94.14
74329;BME280;62749;51.982;5.916;2023-08-20T04:37:26;101945.56;;;18.69;94.33
74329;BME280;62749;51.982;5.916;2023-08-20T04:39:55;101946.41;;;18.69;94.70
74329;BME280;62749;51.982;5.916;2023-08-20T04:42:27;101952.72;;;18.68;94.70
74329;BME280;62749;51.982;5.916;2023-08-20T04:44:56;101949.25;;;18.66;94.47
74329;BME280;62749;51.982;5.916;2023-08-20T04:47:26;101947.47;;;18.67;94.47
74329;BME280;62749;51.982;5.916;2023-08-20T04:49:55;101958.06;;;18.68;94.32
74329;BME280;62749;51.982;5.916;2023-08-20T04:52:25;101952.81;;;18.67;94.31
74329;BME280;62749;51.982;5.916;2023-08-20T04:54:54;101960.84;;;18.67;94.72
74329;BME280;62749;51.982;5.916;2023-08-20T04:57:26;101963.50;;;18.67;94.61
74329;BME280;62749;51.982;5.916;2023-08-20T04:59:56;101965.91;;;18.71;93.89
74329;BME280;62749;51.982;5.916;2023-08-20T05:02:25;101967.25;;;18.64;94.23
74329;BME280;62749;51.982;5.916;2023-08-20T05:04:54;101968.00;;;18.66;93.88
74329;BME280;62749;51.982;5.916;2023-08-20T05:07:24;101965.81;;;18.73;94.21
74329;BME280;62749;51.982;5.916;2023-08-20T05:09:53;101967.47;;;18.76;93.92
74329;BME280;62749;51.982;5.916;2023-08-20T05:12:23;101974.06;;;18.70;93.16
74329;BME280;62749;51.982;5.916;2023-08-20T05:14:55;101976.28;;;18.78;92.99
74329;BME280;62749;51.982;5.916;2023-08-20T05:17:24;101986.47;;;18.71;92.51
74329;BME280;62749;51.982;5.916;2023-08-20T05:19:53;101981.38;;;18.66;93.10
74329;BME280;62749;51.982;5.916;2023-08-20T05:22:23;101985.44;;;18.74;93.17
74329;BME280;62749;51.982;5.916;2023-08-20T05:24:52;101991.97;;;18.84;93.01
74329;BME280;62749;51.982;5.916;2023-08-20T05:27:21;101993.31;;;18.91;92.60
74329;BME280;62749;51.982;5.916;2023-08-20T05:29:51;101984.34;;;18.92;92.24
74329;BME280;62749;51.982;5.916;2023-08-20T05:32:23;101987.75;;;18.96;91.85
74329;BME280;62749;51.982;5.916;2023-08-20T05:34:52;101992.22;;;18.95;90.71
74329;BME280;62749;51.982;5.916;2023-08-20T05:37:21;101995.59;;;18.99;90.25
74329;BME280;62749;51.982;5.916;2023-08-20T05:39:51;101993.41;;;19.06;90.46
74329;BME280;62749;51.982;5.916;2023-08-20T05:42:20;101988.94;;;19.06;89.89
74329;BME280;62749;51.982;5.916;2023-08-20T05:44:49;101989.44;;;19.13;90.66
74329;BME280;62749;51.982;5.916;2023-08-20T05:47:19;101989.66;;;19.24;91.08
74329;BME280;62749;51.982;5.916;2023-08-20T05:49:51;101990.16;;;19.31;89.97
74329;BME280;62749;51.982;5.916;2023-08-20T05:52:20;102001.19;;;19.41;88.66
74329;BME280;62749;51.982;5.916;2023-08-20T05:54:50;101997.78;;;19.68;86.89
74329;BME280;62749;51.982;5.916;2023-08-20T05:57:19;102001.00;;;19.73;86.32
74329;BME280;62749;51.982;5.916;2023-08-20T05:59:49;102011.56;;;19.76;86.23
74329;BME280;62749;51.982;5.916;2023-08-20T06:02:18;102007.16;;;19.75;85.79
74329;BME280;62749;51.982;5.916;2023-08-20T06:04:48;102010.13;;;19.85;84.85
74329;BME280;62749;51.982;5.916;2023-08-20T06:07:23;101998.75;;;19.81;84.57
74329;BME280;62749;51.982;5.916;2023-08-20T06:09:52;101998.19;;;19.90;84.24
74329;BME280;62749;51.982;5.916;2023-08-20T06:12:23;102003.38;;;19.93;82.89
74329;BME280;62749;51.982;5.916;2023-08-20T06:14:52;102002.47;;;19.93;83.86
74329;BME280;62749;51.982;5.916;2023-08-20T06:17:22;102008.44;;;19.98;83.11
74329;BME280;62749;51.982;5.916;2023-08-20T06:19:51;101996.16;;;20.08;83.09
74329;BME280;62749;51.982;5.916;2023-08-20T06:22:23;101992.41;;;20.11;82.35
74329;BME280;62749;51.982;5.916;2023-08-20T06:24:52;101991.06;;;20.18;81.66
74329;BME280;62749;51.982;5.916;2023-08-20T06:27:22;101994.50;;;20.20;80.55
74329;BME280;62749;51.982;5.916;2023-08-20T06:29:51;102000.94;;;20.18;81.55
74329;BME280;62749;51.982;5.916;2023-08-20T06:32:21;101996.53;;;20.17;82.76
74329;BME280;62749;51.982;5.916;2023-08-20T06:34:50;101994.00;;;20.28;81.68
74329;BME280;62749;51.982;5.916;2023-08-20T06:37:22;101997.72;;;20.40;80.78
74329;BME280;62749;51.982;5.916;2023-08-20T06:39:52;101994.84;;;20.43;80.51
74329;BME280;62749;51.982;5.916;2023-08-20T06:42:21;102001.53;;;20.50;79.23
74329;BME280;62749;51.982;5.916;2023-08-20T06:44:50;102005.28;;;20.48;78.38
74329;BME280;62749;51.982;5.916;2023-08-20T06:47:20;102003.69;;;20.45;78.84
74329;BME280;62749;51.982;5.916;2023-08-20T06:49:49;102006.81;;;20.52;77.46
74329;BME280;62749;51.982;5.916;2023-08-20T06:52:19;102003.06;;;20.54;77.58
74329;BME280;62749;51.982;5.916;2023-08-20T06:54:51;102008.13;;;20.59;77.64
74329;BME280;62749;51.982;5.916;2023-08-20T06:57:20;102004.06;;;20.66;76.13
74329;BME280;62749;51.982;5.916;2023-08-20T06:59:49;101997.09;;;20.64;76.40
74329;BME280;62749;51.982;5.916;2023-08-20T07:02:18;101996.69;;;20.70;75.81
74329;BME280;62749;51.982;5.916;2023-08-20T07:04:48;101999.75;;;20.78;76.65
74329;BME280;62749;51.982;5.916;2023-08-20T07:07:17;101995.59;;;20.87;75.72
74329;BME280;62749;51.982;5.916;2023-08-20T07:09:46;101998.09;;;20.90;74.78
74329;BME280;62749;51.982;5.916;2023-08-20T07:12:18;101992.91;;;20.87;75.79
74329;BME280;62749;51.982;5.916;2023-08-20T07:14:48;102009.56;;;20.92;75.59
74329;BME280;62749;51.982;5.916;2023-08-20T07:17:17;102003.91;;;20.97;75.11
74329;BME280;62749;51.982;5.916;2023-08-20T07:19:47;101997.66;;;20.96;75.22
74329;BME280;62749;51.982;5.916;2023-08-20T07:22:16;101994.25;;;21.07;75.35
74329;BME280;62749;51.982;5.916;2023-08-20T07:24:45;101998.16;;;21.16;74.91
74329;BME280;62749;51.982;5.916;2023-08-20T07:27:17;102009.75;;;21.17;74.26
74329;BME280;62749;51.982;5.916;2023-08-20T07:29:47;102010.81;;;21.14;74.20
74329;BME280;62749;51.982;5.916;2023-08-20T07:32:16;102014.97;;;21.05;75.65
74329;BME280;62749;51.982;5.916;2023-08-20T07:34:45;102012.53;;;21.15;75.45
74329;BME280;62749;51.982;5.916;2023-08-20T07:37:15;102009.09;;;21.26;74.40
74329;BME280;62749;51.982;5.916;2023-08-20T07:39:44;102012.16;;;21.34;74.17
74329;BME280;62749;51.982;5.916;2023-08-20T07:42:13;102017.84;;;21.42;73.68
74329;BME280;62749;51.982;5.916;2023-08-20T07:44:47;102025.72;;;21.45;73.61
74329;BME280;62749;51.982;5.916;2023-08-20T07:47:16;102025.19;;;21.53;74.27
74329;BME280;62749;51.982;5.916;2023-08-20T07:49:51;102031.97;;;21.59;74.11
74329;BME280;62749;51.982;5.916;2023-08-20T07:52:21;102019.94;;;21.65;72.05
74329;BME280;62749;51.982;5.916;2023-08-20T07:54:50;102018.34;;;21.62;72.52
74329;BME280;62749;51.982;5.916;2023-08-20T07:57:19;102028.09;;;21.63;72.25
74329;BME280;62749;51.982;5.916;2023-08-20T07:59:52;102025.84;;;21.83;72.60
74329;BME280;62749;51.982;5.916;2023-08-20T08:02:21;102015.63;;;21.75;70.92
74329;BME280;62749;51.982;5.916;2023-08-20T08:04:51;102030.59;;;21.79;69.82
74329;BME280;62749;51.982;5.916;2023-08-20T08:07:20;102037.38;;;21.85;69.57
74329;BME280;62749;51.982;5.916;2023-08-20T08:09:49;102037.16;;;21.88;69.87
74329;BME280;62749;51.982;5.916;2023-08-20T08:12:19;102025.31;;;21.77;69.91
74329;BME280;62749;51.982;5.916;2023-08-20T08:14:48;102030.69;;;21.90;70.95
74329;BME280;62749;51.982;5.916;2023-08-20T08:17:20;102036.03;;;22.03;71.38
74329;BME280;62749;51.982;5.916;2023-08-20T08:19:49;102030.88;;;22.13;68.23
74329;BME280;62749;51.982;5.916;2023-08-20T08:22:20;102027.16;;;22.27;69.21
74329;BME280;62749;51.982;5.916;2023-08-20T08:24:58;102020.94;;;22.40;69.28
74329;BME280;62749;51.982;5.916;2023-08-20T08:27:28;102030.91;;;22.50;67.27
74329;BME280;62749;51.982;5.916;2023-08-20T08:29:57;102027.81;;;22.44;65.93
74329;BME280;62749;51.982;5.916;2023-08-20T08:32:29;102027.59;;;22.47;66.98
74329;BME280;62749;51.982;5.916;2023-08-20T08:34:58;102035.97;;;22.55;67.47
74329;BME280;62749;51.982;5.916;2023-08-20T08:37:28;102053.75;;;22.82;66.72
74329;BME280;62749;51.982;5.916;2023-08-20T08:39:57;102043.44;;;22.76;63.68
74329;BME280;62749;51.982;5.916;2023-08-20T08:42:26;102050.59;;;22.88;63.86
74329;BME280;62749;51.982;5.916;2023-08-20T08:44:59;102057.16;;;22.97;64.95
74329;BME280;62749;51.982;5.916;2023-08-20T08:47:32;102064.19;;;23.11;63.26
74329;BME280;62749;51.982;5.916;2023-08-20T08:50:04;102062.44;;;23.23;64.32
74329;BME280;62749;51.982;5.916;2023-08-20T08:52:36;102056.69;;;23.27;62.15
74329;BME280;62749;51.982;5.916;2023-08-20T08:55:06;102058.28;;;23.30;62.75
74329;BME280;62749;51.982;5.916;2023-08-20T08:57:37;102053.00;;;23.28;60.70
74329;BME280;62749;51.982;5.916;2023-08-20T09:00:07;102061.19;;;23.27;60.99
74329;BME280;62749;51.982;5.916;2023-08-20T09:02:39;102062.19;;;23.26;62.81
74329;BME280;62749;51.982;5.916;2023-08-20T09:05:09;102060.63;;;23.35;60.91
74329;BME280;62749;51.982;5.916;2023-08-20T09:07:42;102053.50;;;23.34;61.08
74329;BME280;62749;51.982;5.916;2023-08-20T09:10:11;102061.09;;;23.28;59.51
74329;BME280;62749;51.982;5.916;2023-08-20T09:12:41;102069.22;;;23.40;59.30
74329;BME280;62749;51.982;5.916;2023-08-20T09:15:11;102067.88;;;23.46;60.57
74329;BME280;62749;51.982;5.916;2023-08-20T09:17:43;102057.50;;;23.52;57.94
74329;BME280;62749;51.982;5.916;2023-08-20T09:20:12;102059.81;;;23.57;58.82
74329;BME280;62749;51.982;5.916;2023-08-20T09:22:48;102060.22;;;23.64;58.06
74329;BME280;62749;51.982;5.916;2023-08-20T09:25:22;102060.81;;;23.67;58.36
74329;BME280;62749;51.982;5.916;2023-08-20T09:27:53;102057.06;;;23.81;57.85
74329;BME280;62749;51.982;5.916;2023-08-20T09:30:23;102053.78;;;24.00;58.04
74329;BME280;62749;51.982;5.916;2023-08-20T09:33:09;102055.38;;;24.03;56.50
74329;BME280;62749;51.982;5.916;2023-08-20T09:35:49;102062.88;;;24.11;56.41
74329;BME280;62749;51.982;5.916;2023-08-20T09:38:19;102060.47;;;23.95;55.88
74329;BME280;62749;51.982;5.916;2023-08-20T09:40:51;102052.53;;;24.04;52.31
74329;BME280;62749;51.982;5.916;2023-08-20T09:43:24;102056.59;;;24.10;52.68
74329;BME280;62749;51.982;5.916;2023-08-20T09:45:59;102060.16;;;24.22;53.89
74329;BME280;62749;51.982;5.916;2023-08-20T09:48:35;102065.06;;;24.40;53.61
74329;BME280;62749;51.982;5.916;2023-08-20T09:51:11;102057.28;;;24.46;51.51
74329;BME280;62749;51.982;5.916;2023-08-20T09:53:50;102065.28;;;24.48;52.56
74329;BME280;62749;51.982;5.916;2023-08-20T09:56:24;102055.69;;;24.55;50.60
74329;BME280;62749;51.982;5.916;2023-08-20T09:58:56;102062.97;;;24.43;53.70
74329;BME280;62749;51.982;5.916;2023-08-20T10:01:27;102062.19;;;24.64;53.48
74329;BME280;62749;51.982;5.916;2023-08-20T10:03:59;102067.47;;;24.77;53.51
74329;BME280;62749;51.982;5.916;2023-08-20T10:06:30;102067.19;;;24.80;54.82
74329;BME280;62749;51.982;5.916;2023-08-20T10:09:02;102066.31;;;24.91;53.19
74329;BME280;62749;51.982;5.916;2023-08-20T10:11:32;102064.44;;;25.03;55.60
74329;BME280;62749;51.982;5.916;2023-08-20T10:14:03;102073.19;;;25.27;53.05
74329;BME280;62749;51.982;5.916;2023-08-20T10:16:33;102074.25;;;25.36;53.05
74329;BME280;62749;51.982;5.916;2023-08-20T10:19:06;102070.81;;;25.34;51.59
74329;BME280;62749;51.982;5.916;2023-08-20T10:21:35;102076.91;;;25.48;51.13
74329;BME280;62749;51.982;5.916;2023-08-20T10:24:06;102075.97;;;25.58;51.08
74329;BME280;62749;51.982;5.916;2023-08-20T10:26:36;102075.44;;;25.65;50.62
74329;BME280;62749;51.982;5.916;2023-08-20T10:29:35;102070.63;;;25.68;50.96
74329;BME280;62749;51.982;5.916;2023-08-20T10:32:06;102074.00;;;25.61;49.85
74329;BME280;62749;51.982;5.916;2023-08-20T10:34:47;102068.66;;;25.49;52.56
74329;BME280;62749;51.982;5.916;2023-08-20T10:37:26;102068.06;;;25.67;51.47
74329;BME280;62749;51.982;5.916;2023-08-20T10:39:56;102074.13;;;25.80;50.10
74329;BME280;62749;51.982;5.916;2023-08-20T10:42:27;102079.41;;;25.82;47.33
74329;BME280;62749;51.982;5.916;2023-08-20T10:45:06;102069.72;;;25.79;45.20
74329;BME280;62749;51.982;5.916;2023-08-20T10:47:41;102075.88;;;25.91;45.44
74329;BME280;62749;51.982;5.916;2023-08-20T10:50:16;102071.78;;;25.97;46.95
74329;BME280;62749;51.982;5.916;2023-08-20T10:52:50;102070.59;;;26.11;45.54
74329;BME280;62749;51.982;5.916;2023-08-20T10:55:22;102062.91;;;26.16;45.70
74329;BME280;62749;51.982;5.916;2023-08-20T10:57:55;102067.53;;;26.25;44.72
74329;BME280;62749;51.982;5.916;2023-08-20T11:00:26;102066.84;;;27.13;43.19
74329;BME280;62749;51.982;5.916;2023-08-20T11:02:57;102073.66;;;28.04;41.83
74329;BME280;62749;51.982;5.916;2023-08-20T11:05:30;102078.94;;;28.43;39.35
74329;BME280;62749;51.982;5.916;2023-08-20T11:08:00;102082.16;;;28.57;40.53
74329;BME280;62749;51.982;5.916;2023-08-20T11:10:33;102077.25;;;28.88;39.39
74329;BME280;62749;51.982;5.916;2023-08-20T11:13:02;102082.19;;;30.35;38.55
74329;BME280;62749;51.982;5.916;2023-08-20T11:15:32;102086.63;;;31.86;33.42
74329;BME280;62749;51.982;5.916;2023-08-20T11:18:04;102088.22;;;32.20;33.37
74329;BME280;62749;51.982;5.916;2023-08-20T11:20:36;102081.69;;;31.07;33.13
74329;BME280;62749;51.982;5.916;2023-08-20T11:23:06;102083.78;;;29.84;36.69
74329;BME280;62749;51.982;5.916;2023-08-20T11:25:41;102087.34;;;29.32;38.86
74329;BME280;62749;51.982;5.916;2023-08-20T11:28:10;102081.03;;;29.14;36.87
74329;BME280;62749;51.982;5.916;2023-08-20T11:30:40;102088.97;;;28.61;37.90
74329;BME280;62749;51.982;5.916;2023-08-20T11:33:09;102082.38;;;28.45;40.63
74329;BME280;62749;51.982;5.916;2023-08-20T11:35:41;102070.84;;;28.33;38.38
74329;BME280;62749;51.982;5.916;2023-08-20T11:38:11;102066.56;;;28.31;41.18
74329;BME280;62749;51.982;5.916;2023-08-20T11:40:41;102070.19;;;28.22;41.36
74329;BME280;62749;51.982;5.916;2023-08-20T11:43:10;102061.16;;;28.31;40.28
74329;BME280;62749;51.982;5.916;2023-08-20T11:45:47;102069.63;;;28.46;38.77
74329;BME280;62749;51.982;5.916;2023-08-20T11:48:17;102063.34;;;28.17;37.79
74329;BME280;62749;51.982;5.916;2023-08-20T11:50:50;102070.97;;;28.04;37.94
74329;BME280;62749;51.982;5.916;2023-08-20T11:53:22;102064.13;;;27.90;41.27
74329;BME280;62749;51.982;5.916;2023-08-20T11:55:52;102062.25;;;28.00;38.40
74329;BME280;62749;51.982;5.916;2023-08-20T11:58:22;102072.09;;;28.01;36.81
74329;BME280;62749;51.982;5.916;2023-08-20T12:00:51;102061.56;;;27.98;39.23
74329;BME280;62749;51.982;5.916;2023-08-20T12:03:20;102058.66;;;28.00;39.89
74329;BME280;62749;51.982;5.916;2023-08-20T12:05:52;102060.03;;;28.24;39.51
74329;BME280;62749;51.982;5.916;2023-08-20T12:08:22;102048.50;;;28.40;39.33
74329;BME280;62749;51.982;5.916;2023-08-20T12:10:51;102051.56;;;28.55;38.14
74329;BME280;62749;51.982;5.916;2023-08-20T12:13:20;102052.78;;;28.14;38.11
74329;BME280;62749;51.982;5.916;2023-08-20T12:15:50;102042.81;;;28.05;39.12
74329;BME280;62749;51.982;5.916;2023-08-20T12:18:19;102041.75;;;28.16;39.00
74329;BME280;62749;51.982;5.916;2023-08-20T12:20:48;102046.56;;;28.32;39.50
74329;BME280;62749;51.982;5.916;2023-08-20T12:23:21;102050.16;;;28.51;39.54
74329;BME280;62749;51.982;5.916;2023-08-20T12:25:51;102036.47;;;28.42;37.41
74329;BME280;62749;51.982;5.916;2023-08-20T12:28:21;102044.22;;;28.37;38.75
74329;BME280;62749;51.982;5.916;2023-08-20T12:30:52;102043.13;;;28.30;40.54
74329;BME280;62749;51.982;5.916;2023-08-20T12:33:22;102040.28;;;28.50;40.89
74329;BME280;62749;51.982;5.916;2023-08-20T12:35:54;102030.13;;;28.70;37.06
74329;BME280;62749;51.982;5.916;2023-08-20T12:38:26;102034.28;;;28.74;37.90
74329;BME280;62749;51.982;5.916;2023-08-20T12:41:00;102032.16;;;28.68;38.70
74329;BME280;62749;51.982;5.916;2023-08-20T12:43:31;102032.56;;;28.73;37.93
74329;BME280;62749;51.982;5.916;2023-08-20T12:46:01;102043.53;;;28.53;36.88
74329;BME280;62749;51.982;5.916;2023-08-20T12:48:30;102039.03;;;28.44;38.92
74329;BME280;62749;51.982;5.916;2023-08-20T12:50:59;102032.84;;;28.52;38.02
74329;BME280;62749;51.982;5.916;2023-08-20T12:53:32;102028.66;;;28.57;38.56
74329;BME280;62749;51.982;5.916;2023-08-20T12:56:01;102041.41;;;28.57;39.40
74329;BME280;62749;51.982;5.916;2023-08-20T12:58:31;102027.81;;;28.57;37.41
74329;BME280;62749;51.982;5.916;2023-08-20T13:01:00;102035.56;;;28.70;38.49
74329;BME280;62749;51.982;5.916;2023-08-20T13:03:30;102033.66;;;28.80;38.79
74329;BME280;62749;51.982;5.916;2023-08-20T13:06:00;102038.78;;;29.01;38.87
74329;BME280;62749;51.982;5.916;2023-08-20T13:08:33;102041.19;;;28.86;36.77